createdAt,value
2023-02-26T00:02:02.164Z,100324.38
2023-02-26T00:04:29.156Z,100328.75
2023-02-26T00:06:59.360Z,100340.84
2023-02-26T00:09:26.853Z,100340.03
2023-02-26T00:11:54.200Z,100334.81
2023-02-26T00:14:21.742Z,100354.91
2023-02-26T00:17:06.818Z,100341.72
2023-02-26T00:19:34.154Z,100343.31
2023-02-26T00:22:01.135Z,100348.66
2023-02-26T00:24:27.985Z,100359.06
2023-02-26T00:26:54.981Z,100353.78
2023-02-26T00:29:22.021Z,100372.44
2023-02-26T00:31:49.229Z,100371.72
2023-02-26T00:34:16.367Z,100378.53
2023-02-26T00:37:05.681Z,100392.50
2023-02-26T00:39:39.041Z,100399.31
2023-02-26T00:42:07.888Z,100397.50
2023-02-26T00:44:38.053Z,100399.31
2023-02-26T00:48:00.551Z,100396.72
2023-02-26T00:50:30.330Z,100402.91
2023-02-26T00:53:00.247Z,100398.47
2023-02-26T00:55:28.573Z,100402.84
2023-02-26T00:57:56.631Z,100411.56
2023-02-26T01:00:24.008Z,100396.63
2023-02-26T01:02:51.340Z,100408.72
2023-02-26T01:05:19.676Z,100416.50
2023-02-26T01:08:15.900Z,100415.66
2023-02-26T01:10:42.974Z,100412.22
2023-02-26T01:13:10.036Z,100421.00
2023-02-26T01:15:39.575Z,100424.47
2023-02-26T01:18:14.839Z,100428.72
2023-02-26T01:21:03.705Z,100425.94
2023-02-26T01:23:33.584Z,100429.34
2023-02-26T01:26:04.576Z,100440.88
2023-02-26T01:28:31.687Z,100424.47
2023-02-26T01:31:04.193Z,100444.38
2023-02-26T01:33:52.890Z,100439.38
2023-02-26T01:36:23.716Z,100440.00
2023-02-26T01:39:08.629Z,100444.38
2023-02-26T01:41:50.516Z,100445.31
2023-02-26T01:44:26.164Z,100434.75
2023-02-26T01:47:19.432Z,100448.66
2023-02-26T01:49:50.259Z,100451.38
2023-02-26T01:52:50.591Z,100449.66
2023-02-26T01:55:20.893Z,100451.28
2023-02-26T01:57:48.727Z,100456.47
2023-02-26T02:00:16.768Z,100465.22
2023-02-26T02:02:44.008Z,100461.78
2023-02-26T02:05:18.796Z,100471.34
2023-02-26T02:07:47.277Z,100474.84
2023-02-26T02:10:14.113Z,100474.09
2023-02-26T02:12:57.185Z,100480.06
2023-02-26T02:15:33.935Z,100483.66
2023-02-26T02:18:17.887Z,100490.63
2023-02-26T02:21:13.528Z,100493.31
2023-02-26T02:24:28.329Z,100493.22
2023-02-26T02:26:59.682Z,100494.16
2023-02-26T02:29:35.116Z,100497.59
2023-02-26T02:32:10.681Z,100506.25
2023-02-26T02:34:51.921Z,100511.47
2023-02-26T02:37:27.969Z,100509.78
2023-02-26T02:40:05.540Z,100508.13
2023-02-26T02:42:45.440Z,100507.28
2023-02-26T02:45:25.564Z,100515.06
2023-02-26T02:48:03.287Z,100515.00
2023-02-26T02:50:50.904Z,100518.50
2023-02-26T02:53:22.379Z,100516.81
2023-02-26T02:56:05.250Z,100522.03
2023-02-26T02:58:39.649Z,100525.41
2023-02-26T03:01:13.105Z,100522.84
2023-02-26T03:04:01.725Z,100522.84
2023-02-26T03:06:31.325Z,100529.13
2023-02-26T03:09:00.519Z,100521.31
2023-02-26T03:11:30.771Z,100531.03
2023-02-26T03:13:58.071Z,100552.47
2023-02-26T03:16:45.313Z,100553.38
2023-02-26T03:19:23.574Z,100560.41
2023-02-26T03:22:41.145Z,100552.63
2023-02-26T03:25:29.819Z,100561.25
2023-02-26T03:28:17.639Z,100556.88
2023-02-26T03:31:00.423Z,100568.97
2023-02-26T03:33:38.453Z,100575.13
2023-02-26T03:36:23.592Z,100581.16
2023-02-26T03:39:12.881Z,100574.19
2023-02-26T03:41:52.860Z,100582.94
2023-02-26T03:44:27.268Z,100595.97
2023-02-26T03:47:06.657Z,100610.63
2023-02-26T03:49:40.581Z,100603.72
2023-02-26T03:52:07.945Z,100605.56
2023-02-26T03:54:54.557Z,100611.59
2023-02-26T03:57:50.890Z,100622.00
2023-02-26T04:00:42.763Z,100618.63
2023-02-26T04:03:20.653Z,100633.38
2023-02-26T04:05:52.280Z,100632.38
2023-02-26T04:08:22.007Z,100640.25
2023-02-26T04:10:55.396Z,100632.50
2023-02-26T04:13:22.408Z,100656.72
2023-02-26T04:15:53.284Z,100657.75
2023-02-26T04:18:22.899Z,100655.16
2023-02-26T04:20:50.212Z,100660.22
2023-02-26T04:23:19.540Z,100661.09
2023-02-26T04:25:46.735Z,100660.22
2023-02-26T04:28:18.041Z,100661.03
2023-02-26T04:30:45.173Z,100667.25
2023-02-26T04:33:14.802Z,100668.94
2023-02-26T04:35:44.710Z,100676.72
2023-02-26T04:38:12.082Z,100687.06
2023-02-26T04:40:45.031Z,100681.94
2023-02-26T04:43:13.903Z,100682.78
2023-02-26T04:45:49.398Z,100695.06
2023-02-26T04:48:16.872Z,100691.63
2023-02-26T04:50:47.326Z,100692.50
2023-02-26T04:53:19.177Z,100689.72
2023-02-26T04:55:50.191Z,100698.34
2023-02-26T04:58:18.507Z,100706.28
2023-02-26T05:00:54.929Z,100704.63
2023-02-26T05:03:22.228Z,100714.13
2023-02-26T05:05:49.285Z,100722.03
2023-02-26T05:08:16.509Z,100715.97
2023-02-26T05:10:43.334Z,100728.22
2023-02-26T05:13:11.111Z,100728.16
2023-02-26T05:15:37.930Z,100736.88
2023-02-26T05:18:04.908Z,100733.22
2023-02-26T05:20:31.796Z,100737.69
2023-02-26T05:22:59.159Z,100739.44
2023-02-26T05:25:29.197Z,100737.78
2023-02-26T05:27:56.926Z,100754.19
2023-02-26T05:30:24.319Z,100740.31
2023-02-26T05:32:51.151Z,100750.72
2023-02-26T05:35:18.016Z,100751.25
2023-02-26T05:37:44.922Z,100747.44
2023-02-26T05:40:12.377Z,100751.94
2023-02-26T05:42:39.713Z,100750.97
2023-02-26T05:45:07.272Z,100755.97
2023-02-26T05:47:34.655Z,100763.69
2023-02-26T05:50:01.727Z,100768.78
2023-02-26T05:52:34.312Z,100774.31
2023-02-26T05:55:04.297Z,100779.88
2023-02-26T05:57:31.298Z,100793.06
2023-02-26T05:59:58.057Z,100791.47
2023-02-26T06:02:24.914Z,100796.66
2023-02-26T06:04:51.665Z,100807.09
2023-02-26T06:07:18.477Z,100804.47
2023-02-26T06:09:45.431Z,100808.84
2023-02-26T06:12:30.079Z,100806.41
2023-02-26T06:14:56.830Z,100822.91
2023-02-26T06:17:23.566Z,100810.59
2023-02-26T06:19:50.237Z,100822.78
2023-02-26T06:22:16.947Z,100823.66
2023-02-26T06:24:43.995Z,100813.19
2023-02-26T06:27:13.203Z,100820.16
2023-02-26T06:29:40.136Z,100825.41
2023-02-26T06:32:07.282Z,100836.84
2023-02-26T06:34:34.471Z,100842.22
2023-02-26T06:37:01.323Z,100850.84
2023-02-26T06:39:27.993Z,100847.34
2023-02-26T06:41:54.669Z,100856.94
2023-02-26T06:44:21.403Z,100856.06
2023-02-26T06:46:48.075Z,100858.63
2023-02-26T06:49:14.960Z,100869.09
2023-02-26T06:51:41.976Z,100863.75
2023-02-26T06:54:11.720Z,100880.25
2023-02-26T06:56:38.452Z,100875.91
2023-02-26T06:59:05.809Z,100876.84
2023-02-26T07:01:33.066Z,100877.75
2023-02-26T07:03:59.815Z,100877.91
2023-02-26T07:06:28.087Z,100892.63
2023-02-26T07:08:55.768Z,100904.94
2023-02-26T07:11:22.686Z,100905.81
2023-02-26T07:13:49.498Z,100912.75
2023-02-26T07:16:37.582Z,100918.75
2023-02-26T07:19:04.355Z,100918.75
2023-02-26T07:21:42.603Z,100931.66
2023-02-26T07:24:21.108Z,100925.66
2023-02-26T07:26:47.996Z,100940.47
2023-02-26T07:29:14.803Z,100934.28
2023-02-26T07:31:41.867Z,100935.97
2023-02-26T07:34:08.752Z,100948.16
2023-02-26T07:36:35.705Z,100941.22
2023-02-26T07:39:02.487Z,100956.75
2023-02-26T07:41:29.193Z,100954.22
2023-02-26T07:43:56.015Z,100945.47
2023-02-26T07:46:22.762Z,100954.06
2023-02-26T07:48:49.626Z,100955.91
2023-02-26T07:51:16.293Z,100956.63
2023-02-26T07:53:43.002Z,100974.03
2023-02-26T07:56:10.303Z,100976.72
2023-02-26T07:58:37.227Z,100984.41
2023-02-26T08:01:04.288Z,100979.16
2023-02-26T08:03:32.354Z,100979.13
2023-02-26T08:06:00.472Z,100988.69
2023-02-26T08:08:27.663Z,100995.66
2023-02-26T08:10:54.791Z,100993.88
2023-02-26T08:13:21.510Z,100996.47
2023-02-26T08:15:48.325Z,100997.28
2023-02-26T08:18:15.121Z,100995.56
2023-02-26T08:20:44.754Z,101005.16
2023-02-26T08:23:11.638Z,101010.22
2023-02-26T08:25:38.582Z,101005.06
2023-02-26T08:28:05.592Z,101015.50
2023-02-26T08:30:32.377Z,101029.38
2023-02-26T08:32:59.115Z,101015.38
2023-02-26T08:35:25.920Z,101019.69
2023-02-26T08:37:52.958Z,101018.72
2023-02-26T08:40:19.832Z,101029.06
2023-02-26T08:42:46.818Z,101026.44
2023-02-26T08:45:13.801Z,101027.25
2023-02-26T08:47:55.833Z,101038.44
2023-02-26T08:50:29.353Z,101046.16
2023-02-26T08:52:59.318Z,101039.97
2023-02-26T08:55:28.719Z,101045.28
2023-02-26T08:57:55.881Z,101049.66
2023-02-26T09:00:22.892Z,101056.53
2023-02-26T09:02:50.414Z,101062.41
2023-02-26T09:05:17.377Z,101045.72
2023-02-26T09:07:45.307Z,101059.72
2023-02-26T09:10:13.780Z,101083.28
2023-02-26T09:12:40.938Z,101085.16
2023-02-26T09:15:09.686Z,101093.13
2023-02-26T09:17:37.196Z,101098.50
2023-02-26T09:20:04.395Z,101101.16
2023-02-26T09:22:31.327Z,101107.41
2023-02-26T09:24:58.422Z,101105.72
2023-02-26T09:27:25.348Z,101115.28
2023-02-26T09:29:52.011Z,101112.72
2023-02-26T09:32:18.953Z,101120.47
2023-02-26T09:34:46.346Z,101128.31
2023-02-26T09:37:13.118Z,101131.63
2023-02-26T09:39:39.819Z,101124.50
2023-02-26T09:42:27.703Z,101133.91
2023-02-26T09:44:58.666Z,101137.38
2023-02-26T09:47:37.905Z,101131.28
2023-02-26T09:50:19.433Z,101142.44
2023-02-26T09:53:09.814Z,101134.38
2023-02-26T09:55:48.766Z,101134.22
2023-02-26T09:58:26.431Z,101137.47
2023-02-26T10:01:13.921Z,101147.69
2023-02-26T10:04:14.614Z,101148.47
2023-02-26T10:06:59.570Z,101162.50
2023-02-26T10:09:42.895Z,101158.09
2023-02-26T10:12:13.415Z,101167.78
2023-02-26T10:14:57.967Z,101161.66
2023-02-26T10:17:42.734Z,101166.81
2023-02-26T10:20:37.033Z,101170.97
2023-02-26T10:23:17.214Z,101169.00
2023-02-26T10:25:54.699Z,101168.56
2023-02-26T10:28:48.763Z,101178.00
2023-02-26T10:31:22.916Z,101168.09
2023-02-26T10:34:17.699Z,101182.28
2023-02-26T10:36:51.402Z,101179.94
2023-02-26T10:39:38.203Z,101185.94
2023-02-26T10:42:16.459Z,101202.72
2023-02-26T10:44:51.171Z,101209.63
2023-02-26T10:47:21.769Z,101200.72
2023-02-26T10:49:48.890Z,101197.97
2023-02-26T10:52:17.985Z,101199.03
2023-02-26T10:55:03.005Z,101197.69
2023-02-26T10:57:36.138Z,101209.22
2023-02-26T11:00:06.025Z,101194.06
2023-02-26T11:02:41.295Z,101205.25
2023-02-26T11:05:17.712Z,101202.28
2023-02-26T11:07:50.620Z,101207.22
2023-02-26T11:10:20.650Z,101206.13
2023-02-26T11:12:47.603Z,101213.16
2023-02-26T11:15:23.099Z,101215.22
2023-02-26T11:17:54.469Z,101217.13
2023-02-26T11:20:38.320Z,101219.53
2023-02-26T11:23:07.950Z,101224.06
2023-02-26T11:25:36.204Z,101224.84
2023-02-26T11:28:10.821Z,101227.69
2023-02-26T11:30:38.876Z,101227.63
2023-02-26T11:33:29.094Z,101235.00
2023-02-26T11:36:01.295Z,101237.78
2023-02-26T11:38:28.712Z,101237.41
2023-02-26T11:40:57.942Z,101240.41
2023-02-26T11:43:28.520Z,101248.34
2023-02-26T11:45:58.808Z,101255.25
2023-02-26T11:48:29.694Z,101248.09
2023-02-26T11:50:59.547Z,101254.16
2023-02-26T11:53:33.063Z,101235.34
2023-02-26T11:56:08.609Z,101246.91
2023-02-26T11:58:37.797Z,101243.66
2023-02-26T12:01:05.532Z,101243.84
2023-02-26T12:03:35.454Z,101267.03
2023-02-26T12:06:03.090Z,101262.78
2023-02-26T12:08:38.573Z,101263.59
2023-02-26T12:11:51.389Z,101268.13
2023-02-26T12:15:29.748Z,101263.28
2023-02-26T12:18:32.378Z,101267.00
2023-02-26T12:21:25.495Z,101269.06
2023-02-26T12:23:59.430Z,101263.03
2023-02-26T12:26:35.660Z,101253.22
2023-02-26T12:29:24.040Z,101250.41
2023-02-26T12:32:12.697Z,101258.81
2023-02-26T12:35:03.676Z,101254.28
2023-02-26T12:37:49.183Z,101251.94
2023-02-26T12:40:31.147Z,101258.81
2023-02-26T12:43:43.297Z,101279.31
2023-02-26T12:46:33.158Z,101283.38
2023-02-26T12:49:25.745Z,101282.53
2023-02-26T12:52:24.955Z,101280.59
2023-02-26T12:54:58.659Z,101272.59
2023-02-26T12:57:43.668Z,101279.38
2023-02-26T13:00:13.550Z,101282.34
2023-02-26T13:03:11.050Z,101289.41
2023-02-26T13:05:56.477Z,101281.81
2023-02-26T13:08:53.271Z,101293.00
2023-02-26T13:11:40.231Z,101301.09
2023-02-26T13:14:44.916Z,101299.63
2023-02-26T13:17:29.761Z,101298.84
2023-02-26T13:20:00.274Z,101301.28
2023-02-26T13:22:37.519Z,101304.25
2023-02-26T13:25:34.137Z,101303.31
2023-02-26T13:28:03.241Z,101293.34
2023-02-26T13:30:49.193Z,101296.91
2023-02-26T13:33:24.562Z,101304.75
2023-02-26T13:35:52.982Z,101301.38
2023-02-26T13:38:42.906Z,101317.13
2023-02-26T13:41:20.886Z,101318.28
2023-02-26T13:44:06.220Z,101318.53
2023-02-26T13:47:12.081Z,101312.72
2023-02-26T13:49:51.019Z,101320.09
2023-02-26T13:52:35.548Z,101327.16
2023-02-26T13:55:04.679Z,101329.81
2023-02-26T13:57:36.617Z,101334.50
2023-02-26T14:00:26.539Z,101330.56
2023-02-26T14:03:13.275Z,101330.56
2023-02-26T14:05:48.975Z,101315.16
2023-02-26T14:08:39.401Z,101327.06
2023-02-26T14:11:24.780Z,101328.84
2023-02-26T14:14:11.102Z,101323.66
2023-02-26T14:16:40.711Z,101332.34
2023-02-26T14:19:13.748Z,101324.38
2023-02-26T14:21:50.091Z,101314.53
2023-02-26T14:24:32.446Z,101319.66
2023-02-26T14:27:11.417Z,101323.59
2023-02-26T14:29:44.020Z,101327.56
2023-02-26T14:32:10.931Z,101325.88
2023-02-26T14:34:50.883Z,101326.13
2023-02-26T14:37:24.609Z,101329.91
2023-02-26T14:40:09.044Z,101333.81
2023-02-26T14:42:38.644Z,101337.09
2023-02-26T14:45:27.359Z,101345.66
2023-02-26T14:47:54.992Z,101343.63
2023-02-26T14:50:22.990Z,101351.72
2023-02-26T14:53:24.028Z,101367.66
2023-02-26T14:55:56.979Z,101364.31
2023-02-26T14:58:50.081Z,101369.94
2023-02-26T15:01:40.371Z,101363.91
2023-02-26T15:04:20.377Z,101364.22
2023-02-26T15:06:55.709Z,101366.22
2023-02-26T15:10:01.284Z,101355.72
2023-02-26T15:12:42.819Z,101375.03
2023-02-26T15:15:39.797Z,101367.13
2023-02-26T15:18:46.151Z,101365.84
2023-02-26T15:21:31.535Z,101374.25
2023-02-26T15:23:59.854Z,101369.72
2023-02-26T15:26:33.038Z,101373.25
2023-02-26T15:29:04.142Z,101383.28
2023-02-26T15:31:36.388Z,101376.63
2023-02-26T15:34:03.884Z,101384.78
2023-02-26T15:36:31.754Z,101388.63
2023-02-26T15:39:00.893Z,101381.88
2023-02-26T15:41:30.172Z,101395.28
2023-02-26T15:44:02.533Z,101391.00
2023-02-26T15:46:33.796Z,101403.28
2023-02-26T15:49:06.999Z,101394.34
2023-02-26T15:51:34.160Z,101404.06
2023-02-26T15:54:03.393Z,101395.75
2023-02-26T15:56:36.832Z,101396.91
2023-02-26T15:59:07.848Z,101397.84
2023-02-26T16:01:34.873Z,101399.72
2023-02-26T16:04:06.150Z,101401.66
2023-02-26T16:06:40.673Z,101401.72
2023-02-26T16:09:14.616Z,101394.16
2023-02-26T16:11:41.969Z,101408.13
2023-02-26T16:14:15.917Z,101409.25
2023-02-26T16:16:45.818Z,101408.41
2023-02-26T16:19:17.431Z,101409.38
2023-02-26T16:21:48.273Z,101401.34
2023-02-26T16:24:20.906Z,101407.44
2023-02-26T16:26:52.825Z,101407.44
2023-02-26T16:29:26.280Z,101411.84
2023-02-26T16:31:59.158Z,101417.03
2023-02-26T16:34:51.284Z,101418.19
2023-02-26T16:37:34.556Z,101419.06
2023-02-26T16:40:13.426Z,101429.09
2023-02-26T16:42:54.710Z,101436.28
2023-02-26T16:45:36.887Z,101443.16
2023-02-26T16:48:21.618Z,101452.69
2023-02-26T16:51:05.565Z,101453.69
2023-02-26T16:53:52.965Z,101460.53
2023-02-26T16:56:25.566Z,101467.56
2023-02-26T16:59:12.046Z,101474.38
2023-02-26T17:01:51.201Z,101472.63
2023-02-26T17:04:28.990Z,101476.13
2023-02-26T17:06:58.409Z,101481.38
2023-02-26T17:09:37.991Z,101477.09
2023-02-26T17:12:16.632Z,101475.50
2023-02-26T17:14:45.816Z,101481.72
2023-02-26T17:17:12.598Z,101480.94
2023-02-26T17:19:39.434Z,101491.47
2023-02-26T17:22:11.700Z,101498.50
2023-02-26T17:24:44.374Z,101486.34
2023-02-26T17:27:17.186Z,101488.34
2023-02-26T17:29:45.795Z,101495.38
2023-02-26T17:32:18.279Z,101496.28
2023-02-26T17:34:45.085Z,101495.41
2023-02-26T17:37:12.649Z,101503.22
2023-02-26T17:39:39.399Z,101496.38
2023-02-26T17:42:19.472Z,101505.97
2023-02-26T17:44:46.203Z,101507.78
2023-02-26T17:47:16.717Z,101510.34
2023-02-26T17:49:44.332Z,101507.72
2023-02-26T17:52:11.063Z,101512.97
2023-02-26T17:54:40.470Z,101521.81
2023-02-26T17:57:08.052Z,101527.97
2023-02-26T17:59:34.778Z,101524.50
2023-02-26T18:02:01.564Z,101524.53
2023-02-26T18:04:29.626Z,101523.59
2023-02-26T18:06:56.442Z,101526.97
2023-02-26T18:09:23.286Z,101527.03
2023-02-26T18:11:49.992Z,101526.94
2023-02-26T18:14:16.677Z,101533.00
2023-02-26T18:16:45.453Z,101533.91
2023-02-26T18:19:14.169Z,101537.47
2023-02-26T18:21:40.959Z,101539.34
2023-02-26T18:24:08.075Z,101541.06
2023-02-26T18:26:34.797Z,101534.13
2023-02-26T18:29:01.543Z,101548.97
2023-02-26T18:31:34.953Z,101543.78
2023-02-26T18:34:02.713Z,101544.81
2023-02-26T18:36:35.664Z,101552.56
2023-02-26T18:39:02.605Z,101552.47
2023-02-26T18:41:30.385Z,101553.44
2023-02-26T18:43:57.232Z,101557.00
2023-02-26T18:46:24.488Z,101564.84
2023-02-26T18:48:51.466Z,101561.44
2023-02-26T18:51:18.246Z,101571.19
2023-02-26T18:53:48.173Z,101566.84
2023-02-26T18:56:17.512Z,101568.59
2023-02-26T18:58:44.379Z,101570.28
2023-02-26T19:01:11.180Z,101582.44
2023-02-26T19:03:37.930Z,101585.88
2023-02-26T19:06:08.902Z,101583.25
2023-02-26T19:08:36.411Z,101588.47
2023-02-26T19:11:06.410Z,101592.03
2023-02-26T19:13:34.605Z,101584.28
2023-02-26T19:16:01.384Z,101596.53
2023-02-26T19:18:29.036Z,101599.16
2023-02-26T19:20:56.110Z,101599.22
2023-02-26T19:23:23.509Z,101607.09
2023-02-26T19:25:53.689Z,101608.00
2023-02-26T19:28:20.793Z,101613.28
2023-02-26T19:30:47.605Z,101597.66
2023-02-26T19:33:14.557Z,101604.63
2023-02-26T19:35:41.568Z,101610.69
2023-02-26T19:38:10.037Z,101614.16
2023-02-26T19:40:36.845Z,101617.63
2023-02-26T19:43:06.310Z,101620.31
2023-02-26T19:45:33.071Z,101622.94
2023-02-26T19:47:59.802Z,101620.28
2023-02-26T19:50:43.387Z,101628.19
2023-02-26T19:53:10.614Z,101626.44
2023-02-26T19:55:37.438Z,101635.09
2023-02-26T19:58:04.312Z,101637.69
2023-02-26T20:00:31.266Z,101639.44
2023-02-26T20:02:58.133Z,101638.63
2023-02-26T20:05:25.042Z,101646.50
2023-02-26T20:07:51.971Z,101644.72
2023-02-26T20:10:19.230Z,101643.88
2023-02-26T20:12:46.671Z,101647.38
2023-02-26T20:15:14.150Z,101649.97
2023-02-26T20:17:41.050Z,101654.28
2023-02-26T20:20:08.620Z,101656.91
2023-02-26T20:22:35.314Z,101656.00
2023-02-26T20:25:02.277Z,101666.53
2023-02-26T20:27:29.048Z,101673.53
2023-02-26T20:29:55.816Z,101667.44
2023-02-26T20:32:23.729Z,101673.53
2023-02-26T20:34:52.093Z,101673.53
2023-02-26T20:37:18.825Z,101668.31
2023-02-26T20:39:46.385Z,101670.91
2023-02-26T20:42:13.857Z,101680.47
2023-02-26T20:44:40.644Z,101677.91
2023-02-26T20:47:07.777Z,101685.75
2023-02-26T20:49:35.077Z,101683.13
2023-02-26T20:52:01.927Z,101682.22
2023-02-26T20:54:28.732Z,101683.97
2023-02-26T20:56:55.584Z,101683.09
2023-02-26T20:59:22.707Z,101681.38
2023-02-26T21:01:51.553Z,101686.59
2023-02-26T21:04:18.390Z,101690.94
2023-02-26T21:06:45.373Z,101681.34
2023-02-26T21:09:14.186Z,101685.72
2023-02-26T21:11:41.897Z,101686.59
2023-02-26T21:14:09.599Z,101689.19
2023-02-26T21:16:36.969Z,101686.59
2023-02-26T21:19:04.620Z,101692.66
2023-02-26T21:21:31.801Z,101697.03
2023-02-26T21:23:58.678Z,101702.25
2023-02-26T21:26:27.354Z,101697.03
2023-02-26T21:28:54.188Z,101703.09
2023-02-26T21:31:22.052Z,101700.50
2023-02-26T21:33:49.557Z,101710.94
2023-02-26T21:36:16.948Z,101706.63
2023-02-26T21:38:44.053Z,101700.53
2023-02-26T21:41:10.924Z,101707.47
2023-02-26T21:43:37.660Z,101710.06
2023-02-26T21:46:04.634Z,101714.41
2023-02-26T21:48:31.861Z,101714.41
2023-02-26T21:50:59.871Z,101707.47
2023-02-26T21:53:27.682Z,101710.94
2023-02-26T21:55:54.874Z,101711.81
2023-02-26T21:58:21.663Z,101724.03
2023-02-26T22:00:48.636Z,101721.38
2023-02-26T22:03:15.371Z,101726.63
2023-02-26T22:05:42.109Z,101728.38
2023-02-26T22:08:09.367Z,101730.09
2023-02-26T22:10:36.478Z,101730.09
2023-02-26T22:13:03.368Z,101737.94
2023-02-26T22:15:30.073Z,101724.00
2023-02-26T22:17:56.767Z,101726.63
2023-02-26T22:20:23.662Z,101734.47
2023-02-26T22:22:50.343Z,101724.88
2023-02-26T22:25:17.102Z,101738.81
2023-02-26T22:27:43.877Z,101735.31
2023-02-26T22:30:11.406Z,101739.66
2023-02-26T22:32:38.112Z,101751.88
2023-02-26T22:35:05.653Z,101753.56
2023-02-26T22:37:32.934Z,101749.19
2023-02-26T22:39:59.698Z,101749.22
2023-02-26T22:42:26.390Z,101761.41
2023-02-26T22:44:53.075Z,101757.94
2023-02-26T22:47:20.542Z,101761.34
2023-02-26T22:49:47.460Z,101764.81
2023-02-26T22:52:14.366Z,101765.69
2023-02-26T22:54:41.764Z,101758.72
2023-02-26T22:57:09.134Z,101764.84
2023-02-26T22:59:35.947Z,101756.16
2023-02-26T23:02:03.101Z,101764.00
2023-02-26T23:04:29.875Z,101770.09
2023-02-26T23:06:56.698Z,101766.56
2023-02-26T23:09:23.585Z,101773.53
2023-02-26T23:11:50.444Z,101772.66
2023-02-26T23:14:17.827Z,101777.84
2023-02-26T23:16:44.833Z,101780.41
2023-02-26T23:19:12.141Z,101786.47
2023-02-26T23:21:38.929Z,101779.47
2023-02-26T23:24:06.048Z,101781.22
2023-02-26T23:26:33.084Z,101775.06
2023-02-26T23:28:59.920Z,101781.16
2023-02-26T23:31:27.048Z,101773.28
2023-02-26T23:33:53.947Z,101774.19
2023-02-26T23:36:21.213Z,101777.59
2023-02-26T23:38:47.885Z,101785.34
2023-02-26T23:41:14.623Z,101782.78
2023-02-26T23:43:41.380Z,101781.09
2023-02-26T23:46:08.219Z,101770.63
2023-02-26T23:48:34.979Z,101773.28
2023-02-26T23:51:01.832Z,101781.13
2023-02-26T23:53:28.544Z,101776.81
2023-02-26T23:55:58.906Z,101775.06
2023-02-26T23:58:26.889Z,101782.78
